San Diego, California
Traffic Map
Current Weather Conditions
San Diego, California
Overcast
Overcast
65°
Feels Like: 65°
Wind Chill: 65° Ceiling: 2900
Heat Index: 65° Visibility: 10mi
Dew Point: 53° Wind: 12mph
Humidity: 65% Direction: 290° (WNW)
Pressure: 30.01in Gusts: 0mph
Raw Report DataKSAN 272251Z 29010KT 10SM SCT018 OVC029 18/12 A3001 RMK AO2 SLP162 T01830117
Traffic Incident Summary
Active as of:
Severity:
Category:
InformationThere was an issue retrieving the traffic information for this location. Please try a different location or try again shortly.
Advertisements
Track Severe Weather on mobile